This is the latest recevied weather packets stored in our database for station/object IR4UCA. If no packets are shown the sender has not sent any weather packets the latest 1 day(s).
| Time | Temp. | Humidity | Pressure | Rain* | Wind** | Luminosity | Snow |
|---|---|---|---|---|---|---|---|
| 1778052584 | 15° C | 91% | 1009.5 hPa | 1.27 mm | - | - | - |
| 1778051984 | 14.44° C | 91% | 1009.6 hPa | 1.52 mm | - | - | - |
| 1778051384 | 14.44° C | 91% | 1009.7 hPa | 1.78 mm | - | - | - |
| 1778047784 | 14.44° C | 91% | 1009.9 hPa | 2.29 mm | - | - | - |
| 1778047185 | 14.44° C | 91% | 1009.9 hPa | 2.29 mm | - | - | - |
| 1778046584 | 14.44° C | 91% | 1009.9 hPa | 1.78 mm | - | - | - |
| 1778045984 | 14.44° C | 91% | 1009.8 hPa | 1.52 mm | - | - | - |
| 1778045384 | 14.44° C | 91% | 1009.6 hPa | 2.29 mm | - | - | - |
| 1778044784 | 14.44° C | 91% | 1009.9 hPa | 3.56 mm | - | - | - |
| 1778044183 | 14.44° C | 91% | 1010.1 hPa | 4.83 mm | - | - | - |
| 1778041784 | 14.44° C | 91% | 1010.2 hPa | 4.32 mm | - | - | - |
| 1778014785 | 16.67° C | 89% | 1012.6 hPa | 0 mm | - | - | - |
| 1778014184 | 16.67° C | 89% | 1012.6 hPa | 0 mm | - | - | - |
| 1778012984 | 16.67° C | 88% | 1012.6 hPa | 0 mm | - | - | - |
| 1778006983 | 18.33° C | 83% | 1011.6 hPa | 0 mm | - | - | - |
| 1778006383 | 18.89° C | 83% | 1011.6 hPa | 0 mm | - | - | - |
| 1778001584 | 20° C | 81% | 1011.3 hPa | 0 mm | - | - | - |
| 1778000385 | 19.44° C | 83% | 1011.4 hPa | 0 mm | - | - | - |
| 1777999784 | 19.44° C | 83% | 1011.4 hPa | 0 mm | - | - | - |
| 1777998584 | 19.44° C | 84% | 1011.3 hPa | 0 mm | - | - | - |
| 1777997984 | 19.44° C | 83% | 1011.4 hPa | 0 mm | - | - | - |
| 1777996785 | 19.44° C | 84% | 1011.5 hPa | 0 mm | - | - | - |
* Rain latest hour (hover to see other rain measurements)
** Current wind speed in m/s (hover to see current wind gust speed)